sensor_id;sensor_type;location;lat;lon;timestamp;P1;durP1;ratioP1;P2;durP2;ratioP2
77191;SDS011;66172;48.526;8.078;2022-12-18T00:00:47;53.63;;;12.65;;
77191;SDS011;66172;48.526;8.078;2022-12-18T00:03:13;49.67;;;12.75;;
77191;SDS011;66172;48.526;8.078;2022-12-18T00:05:49;51.53;;;12.03;;
77191;SDS011;66172;48.526;8.078;2022-12-18T00:08:16;49.53;;;12.48;;
77191;SDS011;66172;48.526;8.078;2022-12-18T00:10:43;56.33;;;13.30;;
77191;SDS011;66172;48.526;8.078;2022-12-18T00:13:10;57.65;;;14.18;;
77191;SDS011;66172;48.526;8.078;2022-12-18T00:15:37;57.45;;;14.63;;
77191;SDS011;66172;48.526;8.078;2022-12-18T00:18:04;55.60;;;12.93;;
77191;SDS011;66172;48.526;8.078;2022-12-18T00:20:30;59.67;;;13.50;;
77191;SDS011;66172;48.526;8.078;2022-12-18T00:22:57;54.13;;;13.13;;
77191;SDS011;66172;48.526;8.078;2022-12-18T00:25:23;55.53;;;13.77;;
77191;SDS011;66172;48.526;8.078;2022-12-18T00:27:48;46.23;;;12.90;;
77191;SDS011;66172;48.526;8.078;2022-12-18T00:30:14;50.23;;;12.90;;
77191;SDS011;66172;48.526;8.078;2022-12-18T00:32:40;51.72;;;14.35;;
77191;SDS011;66172;48.526;8.078;2022-12-18T00:35:06;46.65;;;11.73;;
77191;SDS011;66172;48.526;8.078;2022-12-18T00:37:35;48.40;;;12.57;;
77191;SDS011;66172;48.526;8.078;2022-12-18T00:40:02;55.22;;;12.70;;
77191;SDS011;66172;48.526;8.078;2022-12-18T00:42:28;45.70;;;12.35;;
77191;SDS011;66172;48.526;8.078;2022-12-18T00:45:17;49.72;;;12.43;;
77191;SDS011;66172;48.526;8.078;2022-12-18T00:47:43;41.70;;;11.07;;
77191;SDS011;66172;48.526;8.078;2022-12-18T00:50:09;50.07;;;12.67;;
77191;SDS011;66172;48.526;8.078;2022-12-18T00:52:35;55.35;;;13.95;;
77191;SDS011;66172;48.526;8.078;2022-12-18T00:55:01;40.80;;;11.85;;
77191;SDS011;66172;48.526;8.078;2022-12-18T00:57:27;54.53;;;14.93;;
77191;SDS011;66172;48.526;8.078;2022-12-18T00:59:52;45.80;;;12.50;;
77191;SDS011;66172;48.526;8.078;2022-12-18T01:02:18;47.38;;;12.95;;
77191;SDS011;66172;48.526;8.078;2022-12-18T01:04:44;49.53;;;13.47;;
77191;SDS011;66172;48.526;8.078;2022-12-18T01:07:10;49.17;;;12.27;;
77191;SDS011;66172;48.526;8.078;2022-12-18T01:09:36;49.30;;;12.52;;
77191;SDS011;66172;48.526;8.078;2022-12-18T01:12:02;49.63;;;13.88;;
77191;SDS011;66172;48.526;8.078;2022-12-18T01:14:28;54.03;;;13.50;;
77191;SDS011;66172;48.526;8.078;2022-12-18T01:16:54;45.00;;;12.30;;
77191;SDS011;66172;48.526;8.078;2022-12-18T01:19:20;45.92;;;12.40;;
77191;SDS011;66172;48.526;8.078;2022-12-18T01:21:45;53.53;;;13.90;;
77191;SDS011;66172;48.526;8.078;2022-12-18T01:24:11;46.20;;;13.47;;
77191;SDS011;66172;48.526;8.078;2022-12-18T01:26:37;48.75;;;13.68;;
77191;SDS011;66172;48.526;8.078;2022-12-18T01:29:03;45.28;;;12.27;;
77191;SDS011;66172;48.526;8.078;2022-12-18T01:31:30;42.37;;;12.53;;
77191;SDS011;66172;48.526;8.078;2022-12-18T01:34:01;52.95;;;14.02;;
77191;SDS011;66172;48.526;8.078;2022-12-18T01:36:30;47.00;;;12.85;;
77191;SDS011;66172;48.526;8.078;2022-12-18T01:39:01;41.78;;;10.85;;
77191;SDS011;66172;48.526;8.078;2022-12-18T01:41:30;45.03;;;14.35;;
77191;SDS011;66172;48.526;8.078;2022-12-18T01:47:31;50.25;;;12.38;;
77191;SDS011;66172;48.526;8.078;2022-12-18T01:50:07;45.70;;;12.57;;
77191;SDS011;66172;48.526;8.078;2022-12-18T01:52:37;49.90;;;13.10;;
77191;SDS011;66172;48.526;8.078;2022-12-18T01:55:04;43.95;;;12.45;;
77191;SDS011;66172;48.526;8.078;2022-12-18T01:57:32;48.33;;;12.63;;
77191;SDS011;66172;48.526;8.078;2022-12-18T02:00:04;41.47;;;11.60;;
77191;SDS011;66172;48.526;8.078;2022-12-18T02:02:33;40.75;;;10.65;;
77191;SDS011;66172;48.526;8.078;2022-12-18T02:05:00;46.10;;;12.05;;
77191;SDS011;66172;48.526;8.078;2022-12-18T02:07:37;36.00;;;10.85;;
77191;SDS011;66172;48.526;8.078;2022-12-18T02:12:52;42.42;;;10.70;;
77191;SDS011;66172;48.526;8.078;2022-12-18T02:15:41;41.05;;;11.27;;
77191;SDS011;66172;48.526;8.078;2022-12-18T02:18:18;39.85;;;10.48;;
77191;SDS011;66172;48.526;8.078;2022-12-18T02:23:58;48.10;;;12.27;;
77191;SDS011;66172;48.526;8.078;2022-12-18T02:26:37;45.10;;;11.38;;
77191;SDS011;66172;48.526;8.078;2022-12-18T02:29:16;45.28;;;11.65;;
77191;SDS011;66172;48.526;8.078;2022-12-18T02:31:48;39.45;;;11.00;;
77191;SDS011;66172;48.526;8.078;2022-12-18T02:34:18;44.75;;;10.75;;
77191;SDS011;66172;48.526;8.078;2022-12-18T02:36:47;49.53;;;13.03;;
77191;SDS011;66172;48.526;8.078;2022-12-18T02:39:15;39.65;;;12.48;;
77191;SDS011;66172;48.526;8.078;2022-12-18T02:41:42;51.35;;;13.73;;
77191;SDS011;66172;48.526;8.078;2022-12-18T02:44:09;44.30;;;12.43;;
77191;SDS011;66172;48.526;8.078;2022-12-18T02:46:39;46.78;;;12.35;;
77191;SDS011;66172;48.526;8.078;2022-12-18T02:52:07;41.17;;;12.15;;
77191;SDS011;66172;48.526;8.078;2022-12-18T02:54:47;42.60;;;10.30;;
77191;SDS011;66172;48.526;8.078;2022-12-18T03:00:21;40.67;;;11.20;;
77191;SDS011;66172;48.526;8.078;2022-12-18T03:05:40;47.53;;;12.57;;
77191;SDS011;66172;48.526;8.078;2022-12-18T03:08:14;46.05;;;11.60;;
77191;SDS011;66172;48.526;8.078;2022-12-18T03:10:45;41.80;;;10.32;;
77191;SDS011;66172;48.526;8.078;2022-12-18T03:13:33;38.75;;;11.88;;
77191;SDS011;66172;48.526;8.078;2022-12-18T03:16:01;44.63;;;11.60;;
77191;SDS011;66172;48.526;8.078;2022-12-18T03:18:30;44.42;;;11.80;;
77191;SDS011;66172;48.526;8.078;2022-12-18T03:20:56;40.58;;;10.65;;
77191;SDS011;66172;48.526;8.078;2022-12-18T03:23:28;39.97;;;9.75;;
77191;SDS011;66172;48.526;8.078;2022-12-18T03:25:58;48.13;;;11.85;;
77191;SDS011;66172;48.526;8.078;2022-12-18T03:28:36;44.27;;;10.60;;
77191;SDS011;66172;48.526;8.078;2022-12-18T03:31:15;42.05;;;11.45;;
77191;SDS011;66172;48.526;8.078;2022-12-18T03:33:47;42.35;;;10.45;;
77191;SDS011;66172;48.526;8.078;2022-12-18T03:36:17;39.70;;;11.05;;
77191;SDS011;66172;48.526;8.078;2022-12-18T03:38:43;31.35;;;9.30;;
77191;SDS011;66172;48.526;8.078;2022-12-18T03:44:12;39.25;;;9.52;;
77191;SDS011;66172;48.526;8.078;2022-12-18T03:46:50;45.90;;;11.23;;
77191;SDS011;66172;48.526;8.078;2022-12-18T03:52:10;47.00;;;11.07;;
77191;SDS011;66172;48.526;8.078;2022-12-18T03:54:43;47.30;;;11.53;;
77191;SDS011;66172;48.526;8.078;2022-12-18T03:57:15;42.28;;;12.18;;
77191;SDS011;66172;48.526;8.078;2022-12-18T03:59:43;41.28;;;12.05;;
77191;SDS011;66172;48.526;8.078;2022-12-18T04:02:12;46.53;;;11.80;;
77191;SDS011;66172;48.526;8.078;2022-12-18T04:04:42;44.92;;;12.05;;
77191;SDS011;66172;48.526;8.078;2022-12-18T04:07:10;53.87;;;12.63;;
77191;SDS011;66172;48.526;8.078;2022-12-18T04:09:38;43.92;;;11.27;;
77191;SDS011;66172;48.526;8.078;2022-12-18T04:12:08;44.85;;;11.18;;
77191;SDS011;66172;48.526;8.078;2022-12-18T04:14:34;41.97;;;11.80;;
77191;SDS011;66172;48.526;8.078;2022-12-18T04:17:01;47.13;;;12.60;;
77191;SDS011;66172;48.526;8.078;2022-12-18T04:19:28;38.97;;;10.83;;
77191;SDS011;66172;48.526;8.078;2022-12-18T04:21:54;39.60;;;10.35;;
77191;SDS011;66172;48.526;8.078;2022-12-18T04:24:20;37.92;;;11.55;;
77191;SDS011;66172;48.526;8.078;2022-12-18T04:26:46;37.05;;;10.45;;
77191;SDS011;66172;48.526;8.078;2022-12-18T04:29:12;36.53;;;10.00;;
77191;SDS011;66172;48.526;8.078;2022-12-18T04:31:38;36.67;;;10.23;;
77191;SDS011;66172;48.526;8.078;2022-12-18T04:34:03;40.10;;;11.48;;
77191;SDS011;66172;48.526;8.078;2022-12-18T04:36:29;39.60;;;12.10;;
77191;SDS011;66172;48.526;8.078;2022-12-18T04:38:55;34.45;;;10.18;;
77191;SDS011;66172;48.526;8.078;2022-12-18T04:41:21;39.83;;;10.75;;
77191;SDS011;66172;48.526;8.078;2022-12-18T04:43:47;36.13;;;11.13;;
77191;SDS011;66172;48.526;8.078;2022-12-18T04:46:13;37.80;;;10.83;;
77191;SDS011;66172;48.526;8.078;2022-12-18T04:48:39;44.88;;;10.63;;
77191;SDS011;66172;48.526;8.078;2022-12-18T04:51:05;40.35;;;10.43;;
77191;SDS011;66172;48.526;8.078;2022-12-18T04:53:32;45.92;;;10.45;;
77191;SDS011;66172;48.526;8.078;2022-12-18T04:56:04;39.70;;;12.07;;
77191;SDS011;66172;48.526;8.078;2022-12-18T04:58:38;39.78;;;10.38;;
77191;SDS011;66172;48.526;8.078;2022-12-18T05:01:05;34.80;;;10.50;;
77191;SDS011;66172;48.526;8.078;2022-12-18T05:03:33;39.00;;;11.55;;
77191;SDS011;66172;48.526;8.078;2022-12-18T05:06:00;41.13;;;12.27;;
77191;SDS011;66172;48.526;8.078;2022-12-18T05:08:26;38.67;;;10.70;;
77191;SDS011;66172;48.526;8.078;2022-12-18T05:11:05;41.92;;;10.05;;
77191;SDS011;66172;48.526;8.078;2022-12-18T05:13:33;38.72;;;10.88;;
77191;SDS011;66172;48.526;8.078;2022-12-18T05:16:00;43.38;;;10.52;;
77191;SDS011;66172;48.526;8.078;2022-12-18T05:18:26;38.70;;;10.70;;
77191;SDS011;66172;48.526;8.078;2022-12-18T05:20:52;37.73;;;10.90;;
77191;SDS011;66172;48.526;8.078;2022-12-18T05:23:19;39.50;;;11.18;;
77191;SDS011;66172;48.526;8.078;2022-12-18T05:25:50;47.40;;;12.68;;
77191;SDS011;66172;48.526;8.078;2022-12-18T05:28:19;36.33;;;9.60;;
77191;SDS011;66172;48.526;8.078;2022-12-18T05:30:49;37.30;;;10.95;;
77191;SDS011;66172;48.526;8.078;2022-12-18T05:33:16;45.37;;;12.03;;
77191;SDS011;66172;48.526;8.078;2022-12-18T05:35:43;42.22;;;11.85;;
77191;SDS011;66172;48.526;8.078;2022-12-18T05:38:09;31.35;;;10.95;;
77191;SDS011;66172;48.526;8.078;2022-12-18T05:40:36;32.78;;;9.18;;
77191;SDS011;66172;48.526;8.078;2022-12-18T05:43:02;39.65;;;11.70;;
77191;SDS011;66172;48.526;8.078;2022-12-18T05:45:28;44.90;;;11.13;;
77191;SDS011;66172;48.526;8.078;2022-12-18T05:47:54;45.88;;;12.90;;
77191;SDS011;66172;48.526;8.078;2022-12-18T05:50:19;43.33;;;10.95;;
77191;SDS011;66172;48.526;8.078;2022-12-18T05:52:45;38.57;;;11.23;;
77191;SDS011;66172;48.526;8.078;2022-12-18T05:55:11;35.53;;;10.63;;
77191;SDS011;66172;48.526;8.078;2022-12-18T05:57:37;40.40;;;11.45;;
77191;SDS011;66172;48.526;8.078;2022-12-18T06:00:03;35.60;;;10.82;;
77191;SDS011;66172;48.526;8.078;2022-12-18T06:02:30;35.33;;;10.70;;
77191;SDS011;66172;48.526;8.078;2022-12-18T06:04:55;39.28;;;10.43;;
77191;SDS011;66172;48.526;8.078;2022-12-18T06:07:21;37.17;;;9.98;;
77191;SDS011;66172;48.526;8.078;2022-12-18T06:09:47;36.17;;;10.93;;
77191;SDS011;66172;48.526;8.078;2022-12-18T06:12:13;29.98;;;10.05;;
77191;SDS011;66172;48.526;8.078;2022-12-18T06:14:39;34.70;;;9.70;;
77191;SDS011;66172;48.526;8.078;2022-12-18T06:17:05;32.13;;;9.00;;
77191;SDS011;66172;48.526;8.078;2022-12-18T06:19:31;35.33;;;9.93;;
77191;SDS011;66172;48.526;8.078;2022-12-18T06:21:57;38.55;;;10.32;;
77191;SDS011;66172;48.526;8.078;2022-12-18T06:24:24;30.20;;;9.13;;
77191;SDS011;66172;48.526;8.078;2022-12-18T06:26:50;35.00;;;10.83;;
77191;SDS011;66172;48.526;8.078;2022-12-18T06:29:16;31.98;;;10.18;;
77191;SDS011;66172;48.526;8.078;2022-12-18T06:31:42;36.60;;;9.93;;
77191;SDS011;66172;48.526;8.078;2022-12-18T06:34:07;41.83;;;11.30;;
77191;SDS011;66172;48.526;8.078;2022-12-18T06:36:33;35.60;;;10.00;;
77191;SDS011;66172;48.526;8.078;2022-12-18T06:38:59;37.75;;;11.65;;
77191;SDS011;66172;48.526;8.078;2022-12-18T06:41:25;32.85;;;10.05;;
77191;SDS011;66172;48.526;8.078;2022-12-18T06:43:51;35.47;;;10.50;;
77191;SDS011;66172;48.526;8.078;2022-12-18T06:46:17;38.05;;;12.02;;
77191;SDS011;66172;48.526;8.078;2022-12-18T06:48:46;30.55;;;7.82;;
77191;SDS011;66172;48.526;8.078;2022-12-18T06:51:15;37.85;;;11.45;;
77191;SDS011;66172;48.526;8.078;2022-12-18T06:53:45;32.60;;;9.27;;
77191;SDS011;66172;48.526;8.078;2022-12-18T06:56:12;37.23;;;9.73;;
77191;SDS011;66172;48.526;8.078;2022-12-18T06:58:38;30.40;;;9.43;;
77191;SDS011;66172;48.526;8.078;2022-12-18T07:01:05;34.05;;;9.82;;
77191;SDS011;66172;48.526;8.078;2022-12-18T07:03:32;31.13;;;9.52;;
77191;SDS011;66172;48.526;8.078;2022-12-18T07:05:58;26.83;;;9.33;;
77191;SDS011;66172;48.526;8.078;2022-12-18T07:08:25;33.47;;;9.02;;
77191;SDS011;66172;48.526;8.078;2022-12-18T07:10:51;30.20;;;10.35;;
77191;SDS011;66172;48.526;8.078;2022-12-18T07:13:17;33.78;;;10.32;;
77191;SDS011;66172;48.526;8.078;2022-12-18T07:15:43;45.83;;;12.60;;
77191;SDS011;66172;48.526;8.078;2022-12-18T07:18:09;42.43;;;10.07;;
77191;SDS011;66172;48.526;8.078;2022-12-18T07:20:36;38.50;;;10.80;;
77191;SDS011;66172;48.526;8.078;2022-12-18T07:23:02;39.50;;;12.30;;
77191;SDS011;66172;48.526;8.078;2022-12-18T07:25:29;31.65;;;10.00;;
77191;SDS011;66172;48.526;8.078;2022-12-18T07:27:55;30.37;;;10.20;;
77191;SDS011;66172;48.526;8.078;2022-12-18T07:30:21;39.67;;;10.18;;
77191;SDS011;66172;48.526;8.078;2022-12-18T07:32:46;38.58;;;11.23;;
77191;SDS011;66172;48.526;8.078;2022-12-18T07:35:12;37.87;;;12.83;;
77191;SDS011;66172;48.526;8.078;2022-12-18T07:37:38;36.70;;;10.53;;
77191;SDS011;66172;48.526;8.078;2022-12-18T07:40:04;35.75;;;9.95;;
77191;SDS011;66172;48.526;8.078;2022-12-18T07:42:31;31.15;;;9.35;;
77191;SDS011;66172;48.526;8.078;2022-12-18T07:45:00;32.63;;;10.07;;
77191;SDS011;66172;48.526;8.078;2022-12-18T07:47:27;28.57;;;9.13;;
77191;SDS011;66172;48.526;8.078;2022-12-18T07:49:54;34.35;;;9.80;;
77191;SDS011;66172;48.526;8.078;2022-12-18T07:52:20;29.60;;;9.02;;
77191;SDS011;66172;48.526;8.078;2022-12-18T07:54:46;31.35;;;9.57;;
77191;SDS011;66172;48.526;8.078;2022-12-18T07:57:14;31.13;;;10.88;;
77191;SDS011;66172;48.526;8.078;2022-12-18T07:59:41;33.13;;;10.90;;
77191;SDS011;66172;48.526;8.078;2022-12-18T08:02:07;30.55;;;9.98;;
77191;SDS011;66172;48.526;8.078;2022-12-18T08:04:33;34.45;;;10.48;;
77191;SDS011;66172;48.526;8.078;2022-12-18T08:06:59;31.33;;;9.43;;
77191;SDS011;66172;48.526;8.078;2022-12-18T08:09:25;34.77;;;10.50;;
77191;SDS011;66172;48.526;8.078;2022-12-18T08:11:51;32.28;;;10.57;;
77191;SDS011;66172;48.526;8.078;2022-12-18T08:14:17;29.02;;;9.55;;
77191;SDS011;66172;48.526;8.078;2022-12-18T08:16:43;30.60;;;10.40;;
77191;SDS011;66172;48.526;8.078;2022-12-18T08:19:09;33.72;;;10.57;;
77191;SDS011;66172;48.526;8.078;2022-12-18T08:21:34;30.02;;;9.98;;
77191;SDS011;66172;48.526;8.078;2022-12-18T08:24:00;30.30;;;9.53;;
77191;SDS011;66172;48.526;8.078;2022-12-18T08:26:27;30.33;;;8.93;;
77191;SDS011;66172;48.526;8.078;2022-12-18T08:28:56;28.35;;;9.95;;
77191;SDS011;66172;48.526;8.078;2022-12-18T08:31:24;29.55;;;9.02;;
77191;SDS011;66172;48.526;8.078;2022-12-18T08:33:51;34.50;;;10.55;;
77191;SDS011;66172;48.526;8.078;2022-12-18T08:36:18;31.45;;;10.10;;
77191;SDS011;66172;48.526;8.078;2022-12-18T08:38:45;38.47;;;12.17;;
77191;SDS011;66172;48.526;8.078;2022-12-18T08:41:12;33.97;;;10.57;;
77191;SDS011;66172;48.526;8.078;2022-12-18T08:43:40;27.15;;;8.75;;
77191;SDS011;66172;48.526;8.078;2022-12-18T08:46:25;25.23;;;8.25;;
77191;SDS011;66172;48.526;8.078;2022-12-18T08:48:53;23.90;;;7.93;;
77191;SDS011;66172;48.526;8.078;2022-12-18T08:51:21;27.97;;;9.20;;
77191;SDS011;66172;48.526;8.078;2022-12-18T08:53:47;29.20;;;9.40;;
77191;SDS011;66172;48.526;8.078;2022-12-18T08:56:13;27.42;;;8.45;;
77191;SDS011;66172;48.526;8.078;2022-12-18T08:58:40;31.67;;;9.50;;
77191;SDS011;66172;48.526;8.078;2022-12-18T09:01:07;26.97;;;9.80;;
77191;SDS011;66172;48.526;8.078;2022-12-18T09:03:34;32.10;;;11.15;;
77191;SDS011;66172;48.526;8.078;2022-12-18T09:06:01;38.25;;;12.23;;
77191;SDS011;66172;48.526;8.078;2022-12-18T09:08:27;36.10;;;10.93;;
77191;SDS011;66172;48.526;8.078;2022-12-18T09:10:53;36.65;;;11.68;;
77191;SDS011;66172;48.526;8.078;2022-12-18T09:13:20;53.30;;;16.07;;
77191;SDS011;66172;48.526;8.078;2022-12-18T09:15:48;39.47;;;13.57;;
77191;SDS011;66172;48.526;8.078;2022-12-18T09:18:18;48.00;;;13.23;;
77191;SDS011;66172;48.526;8.078;2022-12-18T09:20:44;42.92;;;12.27;;
77191;SDS011;66172;48.526;8.078;2022-12-18T09:23:11;39.60;;;12.25;;
77191;SDS011;66172;48.526;8.078;2022-12-18T09:25:38;43.07;;;11.47;;
77191;SDS011;66172;48.526;8.078;2022-12-18T09:28:05;41.13;;;12.38;;
77191;SDS011;66172;48.526;8.078;2022-12-18T09:30:39;43.97;;;12.90;;
77191;SDS011;66172;48.526;8.078;2022-12-18T09:33:08;41.58;;;14.10;;
77191;SDS011;66172;48.526;8.078;2022-12-18T09:35:38;49.97;;;13.90;;
77191;SDS011;66172;48.526;8.078;2022-12-18T09:38:04;40.23;;;12.37;;
77191;SDS011;66172;48.526;8.078;2022-12-18T09:40:33;51.00;;;13.32;;
77191;SDS011;66172;48.526;8.078;2022-12-18T09:43:03;41.53;;;12.90;;
77191;SDS011;66172;48.526;8.078;2022-12-18T09:45:31;44.58;;;13.45;;
77191;SDS011;66172;48.526;8.078;2022-12-18T09:48:14;44.53;;;13.65;;
77191;SDS011;66172;48.526;8.078;2022-12-18T09:50:45;41.90;;;12.93;;
77191;SDS011;66172;48.526;8.078;2022-12-18T09:53:15;47.42;;;13.65;;
77191;SDS011;66172;48.526;8.078;2022-12-18T09:55:46;46.53;;;13.27;;
77191;SDS011;66172;48.526;8.078;2022-12-18T09:58:19;43.03;;;15.40;;
77191;SDS011;66172;48.526;8.078;2022-12-18T10:00:52;41.15;;;12.13;;
77191;SDS011;66172;48.526;8.078;2022-12-18T10:03:19;40.40;;;12.50;;
77191;SDS011;66172;48.526;8.078;2022-12-18T10:15:01;47.92;;;14.00;;
77191;SDS011;66172;48.526;8.078;2022-12-18T10:17:46;45.97;;;14.63;;
77191;SDS011;66172;48.526;8.078;2022-12-18T10:20:32;52.35;;;14.52;;
77191;SDS011;66172;48.526;8.078;2022-12-18T10:23:12;49.13;;;15.07;;
77191;SDS011;66172;48.526;8.078;2022-12-18T10:25:49;50.72;;;15.30;;
77191;SDS011;66172;48.526;8.078;2022-12-18T10:28:25;45.15;;;14.05;;
77191;SDS011;66172;48.526;8.078;2022-12-18T10:30:52;46.47;;;13.80;;
77191;SDS011;66172;48.526;8.078;2022-12-18T10:33:19;45.15;;;14.15;;
77191;SDS011;66172;48.526;8.078;2022-12-18T10:35:48;49.88;;;15.65;;
77191;SDS011;66172;48.526;8.078;2022-12-18T10:40:47;46.50;;;15.60;;
77191;SDS011;66172;48.526;8.078;2022-12-18T10:43:14;45.33;;;14.98;;
77191;SDS011;66172;48.526;8.078;2022-12-18T10:45:41;43.95;;;14.30;;
77191;SDS011;66172;48.526;8.078;2022-12-18T10:48:22;45.53;;;15.73;;
77191;SDS011;66172;48.526;8.078;2022-12-18T10:50:49;46.27;;;15.30;;
77191;SDS011;66172;48.526;8.078;2022-12-18T10:53:21;54.75;;;16.88;;
77191;SDS011;66172;48.526;8.078;2022-12-18T10:55:52;46.63;;;15.52;;
77191;SDS011;66172;48.526;8.078;2022-12-18T10:58:22;55.60;;;15.82;;
77191;SDS011;66172;48.526;8.078;2022-12-18T11:01:01;50.78;;;16.40;;
77191;SDS011;66172;48.526;8.078;2022-12-18T11:03:40;53.90;;;16.93;;
77191;SDS011;66172;48.526;8.078;2022-12-18T11:08:41;56.25;;;16.67;;
77191;SDS011;66172;48.526;8.078;2022-12-18T11:11:15;55.38;;;17.42;;
77191;SDS011;66172;48.526;8.078;2022-12-18T11:13:51;54.63;;;16.77;;
77191;SDS011;66172;48.526;8.078;2022-12-18T11:16:26;51.77;;;15.47;;
77191;SDS011;66172;48.526;8.078;2022-12-18T11:18:53;49.42;;;16.65;;
77191;SDS011;66172;48.526;8.078;2022-12-18T11:21:19;53.75;;;16.50;;
77191;SDS011;66172;48.526;8.078;2022-12-18T11:23:49;51.08;;;17.25;;
77191;SDS011;66172;48.526;8.078;2022-12-18T11:26:19;50.95;;;16.02;;
77191;SDS011;66172;48.526;8.078;2022-12-18T11:31:23;45.28;;;15.15;;
77191;SDS011;66172;48.526;8.078;2022-12-18T11:36:33;46.55;;;15.88;;
77191;SDS011;66172;48.526;8.078;2022-12-18T11:39:20;46.63;;;14.30;;
77191;SDS011;66172;48.526;8.078;2022-12-18T11:41:57;48.73;;;14.50;;
77191;SDS011;66172;48.526;8.078;2022-12-18T11:44:38;44.85;;;13.85;;
77191;SDS011;66172;48.526;8.078;2022-12-18T11:49:51;49.25;;;14.70;;
77191;SDS011;66172;48.526;8.078;2022-12-18T11:52:22;49.03;;;15.07;;
77191;SDS011;66172;48.526;8.078;2022-12-18T11:54:51;48.03;;;15.77;;
77191;SDS011;66172;48.526;8.078;2022-12-18T12:00:00;46.83;;;15.43;;
77191;SDS011;66172;48.526;8.078;2022-12-18T12:10:51;43.20;;;15.82;;
77191;SDS011;66172;48.526;8.078;2022-12-18T12:13:43;46.30;;;14.88;;
77191;SDS011;66172;48.526;8.078;2022-12-18T12:16:25;44.67;;;15.23;;
77191;SDS011;66172;48.526;8.078;2022-12-18T12:19:03;45.80;;;14.88;;
77191;SDS011;66172;48.526;8.078;2022-12-18T12:30:22;49.22;;;15.55;;
77191;SDS011;66172;48.526;8.078;2022-12-18T12:36:03;47.47;;;14.63;;
77191;SDS011;66172;48.526;8.078;2022-12-18T12:39:05;46.92;;;15.13;;
77191;SDS011;66172;48.526;8.078;2022-12-18T12:41:32;46.45;;;14.20;;
77191;SDS011;66172;48.526;8.078;2022-12-18T12:44:25;47.80;;;15.95;;
77191;SDS011;66172;48.526;8.078;2022-12-18T12:46:59;45.67;;;14.52;;
77191;SDS011;66172;48.526;8.078;2022-12-18T12:49:31;44.77;;;14.80;;
77191;SDS011;66172;48.526;8.078;2022-12-18T12:52:00;46.10;;;15.77;;
77191;SDS011;66172;48.526;8.078;2022-12-18T12:54:33;42.70;;;13.77;;
77191;SDS011;66172;48.526;8.078;2022-12-18T12:57:02;43.38;;;13.70;;
77191;SDS011;66172;48.526;8.078;2022-12-18T12:59:40;42.60;;;13.73;;
77191;SDS011;66172;48.526;8.078;2022-12-18T13:02:28;44.03;;;13.90;;
77191;SDS011;66172;48.526;8.078;2022-12-18T13:07:47;47.45;;;15.57;;
77191;SDS011;66172;48.526;8.078;2022-12-18T13:10:26;48.60;;;15.82;;
77191;SDS011;66172;48.526;8.078;2022-12-18T13:13:00;44.03;;;15.13;;
77191;SDS011;66172;48.526;8.078;2022-12-18T13:15:44;53.37;;;15.87;;
77191;SDS011;66172;48.526;8.078;2022-12-18T13:18:16;52.63;;;16.60;;
77191;SDS011;66172;48.526;8.078;2022-12-18T13:21:20;54.45;;;17.20;;
77191;SDS011;66172;48.526;8.078;2022-12-18T13:23:46;58.15;;;17.85;;
77191;SDS011;66172;48.526;8.078;2022-12-18T13:36:48;51.47;;;17.58;;
77191;SDS011;66172;48.526;8.078;2022-12-18T13:41:44;51.63;;;18.70;;
77191;SDS011;66172;48.526;8.078;2022-12-18T13:44:25;46.85;;;16.88;;
77191;SDS011;66172;48.526;8.078;2022-12-18T13:46:51;50.47;;;16.13;;
77191;SDS011;66172;48.526;8.078;2022-12-18T13:49:36;52.00;;;16.85;;
77191;SDS011;66172;48.526;8.078;2022-12-18T13:52:15;51.15;;;16.15;;
77191;SDS011;66172;48.526;8.078;2022-12-18T13:54:51;52.37;;;17.20;;
77191;SDS011;66172;48.526;8.078;2022-12-18T13:57:27;49.42;;;16.40;;
77191;SDS011;66172;48.526;8.078;2022-12-18T13:59:53;47.65;;;16.98;;
77191;SDS011;66172;48.526;8.078;2022-12-18T14:02:23;48.88;;;16.63;;
77191;SDS011;66172;48.526;8.078;2022-12-18T14:04:51;54.85;;;18.05;;
77191;SDS011;66172;48.526;8.078;2022-12-18T14:07:18;50.17;;;16.77;;
77191;SDS011;66172;48.526;8.078;2022-12-18T14:09:49;48.92;;;16.42;;
77191;SDS011;66172;48.526;8.078;2022-12-18T14:12:38;46.80;;;15.38;;
77191;SDS011;66172;48.526;8.078;2022-12-18T14:17:51;49.75;;;16.50;;
77191;SDS011;66172;48.526;8.078;2022-12-18T14:20:29;43.97;;;15.57;;
77191;SDS011;66172;48.526;8.078;2022-12-18T14:22:58;56.90;;;17.05;;
77191;SDS011;66172;48.526;8.078;2022-12-18T14:25:29;49.08;;;15.80;;
77191;SDS011;66172;48.526;8.078;2022-12-18T14:30:37;51.45;;;16.98;;
77191;SDS011;66172;48.526;8.078;2022-12-18T14:33:09;49.37;;;17.23;;
77191;SDS011;66172;48.526;8.078;2022-12-18T14:35:51;44.17;;;15.38;;
77191;SDS011;66172;48.526;8.078;2022-12-18T14:39:14;45.00;;;16.13;;
77191;SDS011;66172;48.526;8.078;2022-12-18T14:41:22;46.47;;;15.32;;
77191;SDS011;66172;48.526;8.078;2022-12-18T14:43:52;50.90;;;17.67;;
77191;SDS011;66172;48.526;8.078;2022-12-18T14:49:50;52.15;;;17.05;;
77191;SDS011;66172;48.526;8.078;2022-12-18T14:52:01;54.45;;;18.15;;
77191;SDS011;66172;48.526;8.078;2022-12-18T14:54:31;47.85;;;17.35;;
77191;SDS011;66172;48.526;8.078;2022-12-18T14:57:01;50.75;;;16.83;;
77191;SDS011;66172;48.526;8.078;2022-12-18T14:59:30;44.57;;;15.93;;
77191;SDS011;66172;48.526;8.078;2022-12-18T15:02:42;51.05;;;18.15;;
77191;SDS011;66172;48.526;8.078;2022-12-18T15:07:49;54.80;;;17.67;;
77191;SDS011;66172;48.526;8.078;2022-12-18T15:10:35;55.63;;;18.70;;
77191;SDS011;66172;48.526;8.078;2022-12-18T15:13:20;51.30;;;16.60;;
77191;SDS011;66172;48.526;8.078;2022-12-18T15:15:48;53.42;;;18.17;;
77191;SDS011;66172;48.526;8.078;2022-12-18T15:18:15;54.92;;;18.05;;
77191;SDS011;66172;48.526;8.078;2022-12-18T15:20:44;53.42;;;17.80;;
77191;SDS011;66172;48.526;8.078;2022-12-18T15:25:40;54.40;;;18.63;;
77191;SDS011;66172;48.526;8.078;2022-12-18T15:33:47;58.80;;;17.37;;
77191;SDS011;66172;48.526;8.078;2022-12-18T15:36:28;57.45;;;19.52;;
77191;SDS011;66172;48.526;8.078;2022-12-18T15:39:02;59.97;;;20.05;;
77191;SDS011;66172;48.526;8.078;2022-12-18T15:41:30;61.78;;;21.00;;
77191;SDS011;66172;48.526;8.078;2022-12-18T15:44:00;58.53;;;17.92;;
77191;SDS011;66172;48.526;8.078;2022-12-18T15:46:26;82.57;;;26.90;;
77191;SDS011;66172;48.526;8.078;2022-12-18T15:48:53;70.28;;;25.33;;
77191;SDS011;66172;48.526;8.078;2022-12-18T15:54:01;66.32;;;21.40;;
77191;SDS011;66172;48.526;8.078;2022-12-18T15:56:31;62.25;;;21.67;;
77191;SDS011;66172;48.526;8.078;2022-12-18T15:59:17;61.27;;;22.43;;
77191;SDS011;66172;48.526;8.078;2022-12-18T16:01:46;58.58;;;20.40;;
77191;SDS011;66172;48.526;8.078;2022-12-18T16:04:14;58.70;;;19.10;;
77191;SDS011;66172;48.526;8.078;2022-12-18T16:06:41;82.43;;;28.80;;
77191;SDS011;66172;48.526;8.078;2022-12-18T16:09:08;69.93;;;25.55;;
77191;SDS011;66172;48.526;8.078;2022-12-18T16:11:34;73.03;;;22.40;;
77191;SDS011;66172;48.526;8.078;2022-12-18T16:14:19;57.28;;;20.52;;
77191;SDS011;66172;48.526;8.078;2022-12-18T16:16:51;66.20;;;22.40;;
77191;SDS011;66172;48.526;8.078;2022-12-18T16:19:19;58.42;;;19.38;;
77191;SDS011;66172;48.526;8.078;2022-12-18T16:21:46;68.00;;;22.98;;
77191;SDS011;66172;48.526;8.078;2022-12-18T16:24:21;65.20;;;22.90;;
77191;SDS011;66172;48.526;8.078;2022-12-18T16:26:49;68.38;;;23.45;;